< < Back
Terminal Aerodrome Forecast


Current Version              Previous Versions:   1  2  3  4  5  6  7  8  9  

Terminal Aerodrome Forecast

113
FTUS44 KBMX 242300
TAFMGM
TAF
KMGM 242325Z 2500/2524 00000KT P6SM SKC=

Latest METAR

503
SAUS80 KWBC 251200 RRB
MTRMGM
METAR KMGM 251153Z 00000KT 10SM CLR 08/06 A3010 RMK AO2 SLP191 T00780056
10089 20061 53012


USA.gov is the U.S. government's official web portal to all federal, state and local government web resources and services.